Station BRHC3 - 8467150 - Bridgeport, CT Image indicating link to RSS feed of recent meteorological observations for station BRHC3


Conditions at BRHC3 as of
(7:18 pm EDT)
2318 GMT on 09/06/2026:
     

Click on the graph icon in the table below to see a time series plot of the last five days of that observation.

5-day plot - Wind Direction Wind Direction (WDIR): S ( 190 deg true )
5-day plot - Wind Speed Wind Speed (WSPD): 1.9 kts
5-day plot - Wind Gust Wind Gust (GST): 2.9 kts
5-day plot - Atmospheric Pressure Atmospheric Pressure (PRES):29.95 in
5-day plot - Water Temperature Water Temperature (WTMP): 74.3 °F
5-day plot - Wind Speed at 10 Meters Wind Speed at 10 meters (WSPD10M): 1.9 kts
5-day plot - Wind Speed at 20 Meters Wind Speed at 20 meters (WSPD20M): 1.9 kts
5-day plot -  Wind Speed, Wind Gust and Atmospheric Pressure Combined plot of Wind Speed, Gust, and Air Pressure
NOS Water Level Observation Network Water Level
Previous observations
TIME
(EDT)
5-day plot - Wind Direction
WDIR
 
5-day plot - Wind Speed
WSPD
kts
5-day plot - Wind Gust
GST
kts
5-day plot - Wave Height
WVHT
ft
5-day plot - Dominant Wave Period
DPD
sec
5-day plot - Average Wave Period
APD
sec
5-day plot - Mean Wave Direction
MWD
 
5-day plot - Atmospheric Pressure
PRES
in
5-day plot - Pressure Tendency
PTDY
in
5-day plot - Air Temperature
ATMP
°F
5-day plot - Water Temperature
WTMP
°F
5-day plot - Dew Point
DEWP
°F
5-day plot - Salinity
SAL
psu
5-day plot - Visibility
VIS
nmi
5-day plot - Tide (above MLLW)
TIDE
ft
2026-09-06 07:12 pmSSW 1.9 2.9----29.95-- 74.3----
2026-09-06 07:06 pm S 2.9 4.1----29.95-- 74.3----
2026-09-06 07:00 pmSSE 2.9 4.1----29.95+0.02 66.6 74.3----
2026-09-06 06:54 pmSSE 2.9 5.1----29.95- 66.9 74.3----
2026-09-06 06:48 pm SE 2.9 5.1----29.95- 67.1 74.3----
2026-09-06 06:42 pmESE 1.9 2.9----29.95- 67.6 74.3----
2026-09-06 06:36 pm SE 1.9 5.1----29.96- 67.6 74.3----
2026-09-06 06:30 pmSSE 2.9 5.1----29.95- 68.5 74.3----
2026-09-06 06:24 pmENE 1.9 7.0----29.95- 69.3 74.3----
2026-09-06 06:18 pm SE 1.9 5.1----29.95-- 74.3----
2026-09-06 06:12 pmSSW 4.1 5.1----29.94-- 74.3----
2026-09-06 06:06 pm SW 4.1 5.1----29.94-- 74.3----
2026-09-06 06:00 pm S 4.1 6.0----29.94+0.01 69.1 74.3----
2026-09-06 05:54 pmSSW 4.1 7.0----29.94- 68.7 74.3----
2026-09-06 05:48 pmSSW 4.1 6.0----29.94- 68.5 74.3----
2026-09-06 05:42 pmSSW 5.1 6.0----29.94- 68.2 74.3----
2026-09-06 05:36 pm S 5.1 6.0----29.94- 68.4 74.3----
2026-09-06 05:30 pmSSW 4.1 5.1----29.94- 68.2 74.3----
2026-09-06 05:24 pm S 2.9 5.1----29.94- 68.4 74.3----
2026-09-06 05:18 pmSSW 4.1 5.1----29.94-- 74.3----
2026-09-06 05:12 pm S 4.1 5.1----29.94-- 74.3----
2026-09-06 05:06 pmSSW 2.9 5.1----29.94-- 74.3----
2026-09-06 05:00 pm S 5.1 6.0----29.94+0.00 67.3 74.3----
2026-09-06 04:54 pm S 2.9 4.1----29.94- 67.3 74.3----
2026-09-06 04:48 pmSSW 4.1 5.1----29.94- 67.1 74.3----
2026-09-06 04:42 pmSSW 4.1 6.0----29.93- 67.1 74.3----
2026-09-06 04:36 pmSSW 4.1 6.0----29.93- 67.1 74.3----
2026-09-06 04:30 pmSSW 5.1 6.0----29.93- 67.1 74.3----
2026-09-06 04:24 pmSSW 5.1 6.0----29.93- 66.9 74.3----
2026-09-06 04:18 pm S 4.1 6.0----29.93-- 74.3----
2026-09-06 04:12 pm S 5.1 6.0----29.93-- 74.3----
2026-09-06 04:06 pm S 5.1 6.0----29.93-- 74.3----
2026-09-06 04:00 pm S 5.1 8.9----29.93-0.01 67.3 74.3----
2026-09-06 03:54 pmSSE 7.0 8.9----29.93- 67.3 74.3----
2026-09-06 03:48 pm S 6.0 7.0----29.93- 67.6 74.3----
2026-09-06 03:42 pm S 6.0 8.0----29.93- 67.5 74.3----
2026-09-06 03:36 pmSSE 5.1 6.0----29.93- 68.0 74.3----
2026-09-06 03:30 pm S 5.1 8.9----29.93- 67.3 74.3----
2026-09-06 03:24 pm S 5.1 7.0----29.93- 68.0 74.3----
2026-09-06 03:18 pm S 2.9 5.1----29.93-- 74.3----
2026-09-06 03:12 pmSSE 5.1 6.0----29.93-- 74.3----
2026-09-06 03:06 pm S 4.1 6.0----29.93-- 74.3----
2026-09-06 03:00 pmSSE 6.0 7.0----29.93-0.01 66.9 74.3----
2026-09-06 02:54 pm SE 4.1 7.0----29.93- 66.9 74.3----
2026-09-06 02:48 pm SE 5.1 6.0----29.93- 66.2 74.3----
2026-09-06 02:42 pm SE 4.1 6.0----29.94- 65.5 74.3----
2026-09-06 02:36 pmESE 1.9 6.0----29.94- 64.8 74.3----
2026-09-06 02:30 pm SE 1.9 5.1----29.94- 64.8 74.3----
2026-09-06 02:24 pmENE 2.9 4.1----29.94- 64.8 74.3----
2026-09-06 02:18 pm- 0.0 4.1----29.94-- 74.3----
2026-09-06 02:12 pmENE 1.9 5.1----29.94-- 74.3----
2026-09-06 02:06 pm SE 6.0 8.9----29.94-- 74.3----
2026-09-06 02:00 pmSSE 8.0 9.9----29.93-0.02 67.1 74.3----
2026-09-06 01:54 pmSSE 8.9 9.9----29.93- 67.5 74.3----
2026-09-06 01:48 pmSSE 7.0 8.9----29.93-------
2026-09-06 01:42 pmSSE 6.0 8.9----29.93-------
2026-09-06 01:36 pmSSE 7.0 8.9----29.93-------
2026-09-06 01:30 pmSSE 6.0 9.9----29.94- 66.6 74.5----
2026-09-06 01:24 pm S 7.0 11.1----29.94- 66.6 74.3----
2026-09-06 01:18 pmSSE 8.0 11.1----29.94-- 74.3----
2026-09-06 01:12 pmSSE 8.0 8.9----29.94-- 74.3----
2026-09-06 01:06 pmSSE 7.0 9.9----29.94-- 74.5----
2026-09-06 01:00 pm S 7.0 9.9----29.94+0.00 67.1 74.5----
2026-09-06 12:54 pm S 8.0 9.9----29.94- 67.5 74.5----
2026-09-06 12:48 pmSSE 7.0 9.9----29.94- 67.8 74.5----
2026-09-06 12:42 pmSSE 8.9 9.9----29.94- 67.5 74.5----
2026-09-06 12:36 pm SE 4.1 6.0----29.94- 67.8 74.3----
2026-09-06 12:30 pm E 2.9 5.1----29.94- 67.3 74.3----
2026-09-06 12:24 pm SE 2.9 5.1----29.94- 67.3 74.5----
2026-09-06 12:18 pmESE 4.1 7.0----29.94-- 74.3----
2026-09-06 12:12 pmESE 1.9 4.1----29.95-- 74.3----
2026-09-06 12:06 pm E 2.9 5.1----29.95-- 74.3----
2026-09-06 12:00 pmENE 4.1 5.1----29.95+0.01 68.4 74.3----
2026-09-06 11:54 amESE 2.9 6.0----29.95- 68.4 74.3----
2026-09-06 11:48 am E 2.9 5.1----29.95- 68.5 74.3----
2026-09-06 11:42 am- 0.0 2.9----29.95- 69.3 74.3----
2026-09-06 11:36 am SE 1.9 4.1----29.95- 70.7 74.3----
2026-09-06 11:30 am N 1.9 5.1----29.95- 68.5 74.3----
2026-09-06 11:24 amNNE 2.9 6.0----29.95- 67.6 74.3----
2026-09-06 11:18 amNNE 2.9 4.1----29.95-- 74.3----
2026-09-06 11:12 am N 4.1 7.0----29.95-- 74.3----
2026-09-06 11:06 am NE 5.1 7.0----29.95-- 74.3----
2026-09-06 11:00 amNNE 5.1 8.9----29.95+0.03 67.5 74.3----
2026-09-06 10:54 am NE 5.1 8.0----29.95- 66.9 74.3----
2026-09-06 10:48 amNNE 2.9 7.0----29.95- 66.7 74.3----
2026-09-06 10:42 am NE 6.0 8.9----29.95- 65.8 74.3----
2026-09-06 10:36 amNNE 7.0 9.9----29.95- 66.0 74.3----
2026-09-06 10:30 am NE 4.1 7.0----29.95- 66.7 74.3----
2026-09-06 10:24 am NE 4.1 6.0----29.95- 65.5 74.3----
2026-09-06 10:18 am N 2.9 8.0----29.94-- 74.3----
2026-09-06 10:12 amNNE 7.0 8.9----29.94-- 74.3----
2026-09-06 10:06 amNNE 4.1 8.9----29.94-- 74.3----
2026-09-06 10:00 am NE 6.0 8.0----29.94+0.04 64.6 74.3----
2026-09-06 09:54 amNNE 5.1 9.9----29.94- 64.2 74.3----
2026-09-06 09:48 amNNE 6.0 8.9----29.94- 63.9 74.3----
2026-09-06 09:42 amNNE 7.0 9.9----29.94- 63.7 74.3----
2026-09-06 09:36 am N 4.1 6.0----29.94- 64.2 74.3----
2026-09-06 09:30 am NE 5.1 8.0----29.94- 63.7 74.3----
2026-09-06 09:24 am NE 6.0 11.1----29.94- 63.7 74.3----
2026-09-06 09:18 am NE 5.1 7.0----29.94-- 74.3----
2026-09-06 09:12 am NE 5.1 8.9----29.94-- 74.3----
2026-09-06 09:06 am NE 5.1 7.0----29.94-- 74.3----
2026-09-06 09:00 amNNE 5.1 9.9----29.94+0.06 63.7 74.3----
2026-09-06 08:54 amNNE 5.1 9.9----29.94- 63.5 74.3----
2026-09-06 08:48 am NE 7.0 9.9----29.93-- 74.3----
2026-09-06 08:42 amNNE 6.0 8.0----29.93-- 74.3----
2026-09-06 08:36 amNNE 4.1 8.0----29.93-- 74.3----
2026-09-06 08:30 amNNE 5.1 7.0----29.93- 63.9 74.3----
2026-09-06 08:24 am N 2.9 5.1----29.93- 64.2 74.3----
2026-09-06 08:18 am N 2.9 5.1----29.93-- 74.3----
2026-09-06 08:12 amNNE 1.9 5.1----29.92-- 74.3----
2026-09-06 08:06 amNNE 2.9 4.1----29.92-- 74.3----
2026-09-06 08:00 amNNE 1.9 5.1----29.92+0.05 63.7 74.3----
2026-09-06 07:54 amNNE 4.1 7.0----29.92- 63.7 74.3----
2026-09-06 07:48 amNNE 4.1 6.0----29.91-- 74.3----
2026-09-06 07:42 amNNE 4.1 8.0----29.91-- 74.3----
2026-09-06 07:36 amNNE 5.1 6.0----29.91-- 74.3----
2026-09-06 07:30 amNNE 4.1 6.0----29.91- 62.8 74.3----
2026-09-06 07:24 am N 4.1 7.0----29.91- 62.4 74.3----
2026-09-06 07:18 am N 2.9 5.1----29.90-- 74.3----
2026-09-06 07:12 amNNE 2.9 5.1----29.90-- 74.3----
2026-09-06 07:06 am N 4.1 6.0----29.90-- 74.3----
2026-09-06 07:00 am N 4.1 5.1----29.90+0.04 61.5 74.3----
2026-09-06 06:54 am N 4.1 5.1----29.90- 61.7 74.3----
2026-09-06 06:48 am N 2.9 5.1----29.90- 61.5 74.3----
2026-09-06 06:42 am N 2.9 6.0----29.89- 61.5 74.3----
2026-09-06 06:36 am N 4.1 5.1----29.89- 61.3 74.3----
2026-09-06 06:30 am N 2.9 5.1----29.89- 61.5 74.3----
2026-09-06 06:24 amNNE 2.9 5.1----29.89- 61.5 74.3----
2026-09-06 06:18 am N 4.1 7.0----29.88-- 74.3----
2026-09-06 06:12 amNNE 2.9 5.1----29.88-- 74.3----
2026-09-06 06:06 am N 2.9 5.1----29.88-- 74.3----
2026-09-06 06:00 am N 4.1 6.0----29.88+0.02 62.1 74.3----
2026-09-06 05:54 amNNE 4.1 5.1----29.88- 62.2 74.3----
2026-09-06 05:48 am N 2.9 4.1----29.87- 62.2 74.3----
2026-09-06 05:42 amNNE 1.9 4.1----29.87- 62.2 74.3----
2026-09-06 05:36 amNNE 2.9 7.0----29.87- 62.4 74.3----
2026-09-06 05:30 amNNE 4.1 6.0----29.87- 62.4 74.3----
2026-09-06 05:24 am NE 2.9 5.1----29.87- 62.4 74.3----
2026-09-06 05:18 amNNE 4.1 7.0----29.87-- 74.3----
2026-09-06 05:12 amNNE 4.1 6.0----29.87-- 74.3----
2026-09-06 05:06 amNNE 4.1 5.1----29.87-- 74.3----
2026-09-06 05:00 amNNE 5.1 6.0----29.87+0.00 62.4 74.3----
2026-09-06 04:54 amNNE 4.1 6.0----29.86- 62.4 74.3----
2026-09-06 04:48 am N 5.1 6.0----29.86- 62.4 74.3----
2026-09-06 04:42 am N 4.1 5.1----29.86- 62.4 74.3----
2026-09-06 04:36 am N 4.1 6.0----29.86- 62.6 74.3----
2026-09-06 04:30 am N 4.1 5.1----29.86- 62.6 74.3----
2026-09-06 04:24 amNNE 4.1 5.1----29.85- 62.6 74.3----
2026-09-06 04:18 am N 4.1 6.0----29.85-- 74.3----
2026-09-06 04:12 am NE 4.1 5.1----29.85-- 74.3----
2026-09-06 04:06 am N 2.9 5.1----29.86-- 74.3----
2026-09-06 04:00 am N 5.1 6.0----29.86-0.01 63.5 74.3----
2026-09-06 03:54 am N 4.1 4.1----29.86- 63.5 74.3----
2026-09-06 03:48 am N 2.9 4.1----29.85- 63.3 74.3----
2026-09-06 03:42 amNNE 2.9 5.1----29.85- 63.1 74.3----
2026-09-06 03:36 amNNE 2.9 4.1----29.85- 63.0 74.3----
2026-09-06 03:30 amNNE 4.1 6.0----29.85- 63.1 74.3----
2026-09-06 03:24 am NE 4.1 6.0----29.86- 63.1 74.3----
2026-09-06 03:18 amNNE 4.1 5.1----29.86-- 74.3----
2026-09-06 03:12 am NE 4.1 6.0----29.86-- 74.3----
2026-09-06 03:06 amNNE 5.1 7.0----29.86-- 74.3----
2026-09-06 03:00 amNNE 4.1 6.0----29.86+0.00 63.7 74.3----
2026-09-06 02:54 amNNE 4.1 6.0----29.85- 63.7 74.3----
2026-09-06 02:48 amNNE 4.1 6.0----29.85- 63.9 74.3----
2026-09-06 02:42 am NE 4.1 6.0----29.85- 63.9 74.5----
2026-09-06 02:36 amNNE 5.1 7.0----29.86- 64.2 74.5----
2026-09-06 02:30 amNNE 4.1 6.0----29.86- 64.6 74.5----
2026-09-06 02:24 amENE 1.9 4.1----29.86- 65.8 74.5----
2026-09-06 02:18 amESE 1.0 2.9----29.86-- 74.7----
2026-09-06 02:12 am SE 2.9 4.1----29.86-- 74.5----
2026-09-06 02:06 am- 0.0 2.9----29.86-- 74.5----
2026-09-06 02:00 am E 1.0 4.1----29.86+0.01 65.5 74.5----
2026-09-06 01:54 amESE 1.0 2.9----29.86- 65.3 74.5----
2026-09-06 01:48 am E 1.0 4.1----29.86- 65.3 74.5----
2026-09-06 01:42 amENE 1.0 5.1----29.86- 65.5 74.5----
2026-09-06 01:36 am SE 2.9 6.0----29.86- 65.5 74.5----
2026-09-06 01:30 am SE 4.1 7.0----29.86- 65.3 74.5----
2026-09-06 01:24 am SE 5.1 8.0----29.86- 65.1 74.5----
2026-09-06 01:18 am SE 4.1 7.0----29.87-- 74.5----
2026-09-06 01:12 am SE 4.1 6.0----29.87-- 74.5----
2026-09-06 01:06 amESE 2.9 7.0----29.87-- 74.5----
2026-09-06 01:00 am SE 1.9 6.0----29.87+0.03 65.1 74.5----
2026-09-06 12:54 amESE 4.1 9.9----29.87- 65.5 74.5----
2026-09-06 12:48 am SE 6.0 11.1----29.87- 65.5 74.5----
2026-09-06 12:42 am SE 7.0 12.0----29.87- 65.5 74.5----
2026-09-06 12:36 am SE 6.0 11.1----29.87- 65.7 74.7----
2026-09-06 12:30 am SE 5.1 8.0----29.87- 65.8 74.5----
2026-09-06 12:24 am SE 6.0 9.9----29.86- 65.8 74.5----
2026-09-06 12:18 amESE 1.0 4.1----29.86-- 74.5----
2026-09-06 12:12 am NE 2.9 5.1----29.86-- 74.5----
2026-09-06 12:06 am NE 2.9 4.1----29.86-- 74.5----
2026-09-06 12:00 am NE 1.9 4.1----29.86+0.03 65.8 74.5----
2026-09-05 11:54 pm NE 2.9 4.1----29.86- 65.8 74.5----
2026-09-05 11:48 pm NE 1.9 2.9----29.86- 65.8 74.5----
2026-09-05 11:42 pmNNE 1.9 4.1----29.86- 66.0 74.5----
2026-09-05 11:36 pm NE 2.9 4.1----29.85- 65.8 74.5----
2026-09-05 11:30 pm NE 1.0 2.9----29.85- 65.7 74.5----
2026-09-05 11:24 pmNNE 1.0 2.9----29.85- 65.5 74.7----
2026-09-05 11:18 pm NE 2.9 4.1----29.85- 65.5 74.7----
2026-09-05 11:12 pm NE 2.9 4.1----29.85- 65.1 74.5----
2026-09-05 11:06 pm- 0.0 5.1----29.85- 65.1 74.5----
2026-09-05 11:00 pm SE 4.1 7.0----29.85+0.05 65.3 74.5----
2026-09-05 10:54 pm NE 1.9 11.1----29.86- 66.2 74.3----
2026-09-05 10:48 pmSSE 1.9 5.1----29.85- 66.9 74.3----
2026-09-05 10:42 pmESE 1.9 8.0----29.85- 66.7 74.5----
2026-09-05 10:36 pmNNE 5.1 8.0----29.85- 67.3 74.5----
2026-09-05 10:30 pmESE 1.9 6.0----29.85- 67.6 74.5----
2026-09-05 10:24 pm SE 4.1 8.0----29.84- 68.0 74.5----
2026-09-05 10:18 pmENE 2.9 6.0----29.84-- 74.3----
2026-09-05 10:12 pm SE 4.1 8.0----29.84-- 74.3----
2026-09-05 10:06 pm SE 5.1 8.0----29.84-- 74.3----
2026-09-05 10:00 pm SE 1.9 5.1----29.84+0.05 70.2 74.3----
2026-09-05 09:54 pm SE 1.9 4.1----29.84- 70.3 74.3----
2026-09-05 09:48 pm E 2.9 6.0----29.84- 70.3 74.3----
2026-09-05 09:42 pmESE 2.9 7.0----29.84- 70.3 74.3----
2026-09-05 09:36 pm E 1.0 5.1----29.84- 70.3 74.3----
2026-09-05 09:30 pm NE 2.9 5.1----29.84- 70.2 74.1----
2026-09-05 09:24 pm NE 2.9 5.1----29.84- 70.0 74.1----
2026-09-05 09:18 pm NE 1.9 7.0----29.83-- 74.3----
2026-09-05 09:12 pmENE 2.9 6.0----29.83-- 74.3----
2026-09-05 09:06 pm NE 4.1 8.0----29.83-- 74.3----
2026-09-05 09:00 pm NE 4.1 8.0----29.83+0.05 69.8 74.3----
2026-09-05 08:54 pmENE 2.9 6.0----29.83- 69.8 74.1----
2026-09-05 08:48 pmENE 2.9 8.0----29.83- 69.8 74.1----
2026-09-05 08:42 pmENE 4.1 8.0----29.83- 70.0 74.3----
2026-09-05 08:36 pmENE 4.1 8.0----29.83- 70.0 74.3----
2026-09-05 08:30 pmENE 4.1 9.9----29.83- 70.3 74.3----
2026-09-05 08:24 pm E 2.9 9.9----29.82- 71.6 74.1----
2026-09-05 08:18 pm NE 5.1 8.0----29.81-- 74.1----
2026-09-05 08:12 pm N 2.9 5.1----29.81-- 74.3----
2026-09-05 08:06 pmNNE 4.1 6.0----29.81-- 74.3----
2026-09-05 08:00 pm N 5.1 7.0----29.81+0.04 72.9 74.3----
2026-09-05 07:54 pm N 4.1 5.1----29.81- 73.0 74.1----
2026-09-05 07:48 pm N 4.1 6.0----29.80-- 74.1----
2026-09-05 07:42 pm N 4.1 8.0----29.80-- 74.3----
2026-09-05 07:36 pmNNE 7.0 8.9----29.80-- 74.1----
2026-09-05 07:30 pmNNE 5.1 8.0----29.80- 73.6 74.3----
2026-09-05 07:24 pm N 5.1 7.0----29.80- 73.8 74.3----
2026-09-05 07:18 pmNNE 6.0 8.9----29.80-- 74.1----
2026-09-05 07:12 pmNNE 4.1 8.0----29.79-- 74.3----
2026-09-05 07:06 pmNNE 6.0 8.9----29.79-- 74.3----
2026-09-05 07:00 pmNNE 4.1 5.1----29.79+0.02 74.3 74.3----
2026-09-05 06:54 pm N 5.1 8.0----29.79- 74.7 74.3----